createdAt,value
2019-02-15T00:02:33.360Z,100800.77
2019-02-15T00:06:35.707Z,100805.11
2019-02-15T00:10:38.341Z,100795.22
2019-02-15T00:14:50.614Z,100784.49
2019-02-15T00:19:07.765Z,100785.45
2019-02-15T00:23:10.083Z,100796.58
2019-02-15T00:27:12.662Z,100804.75
2019-02-15T00:31:18.067Z,100810.53
2019-02-15T00:35:20.701Z,100807.98
2019-02-15T00:39:23.083Z,100821.58
2019-02-15T00:43:25.547Z,100833.36
2019-02-15T00:47:49.623Z,100830.05
2019-02-15T00:52:13.633Z,100828.17
2019-02-15T00:56:37.647Z,100833.06
2019-02-15T01:00:47.356Z,100821.97
2019-02-15T01:05:14.581Z,100817.31
2019-02-15T01:09:34.684Z,100820.75
2019-02-15T01:13:37.090Z,100824.52
2019-02-15T01:17:39.637Z,100834.88
2019-02-15T01:21:41.960Z,100831.38
2019-02-15T01:25:51.673Z,100822.93
2019-02-15T01:30:05.886Z,100823.33
2019-02-15T01:34:20.850Z,100814.63
2019-02-15T01:38:46.832Z,100817.63
2019-02-15T01:43:04.826Z,100806.53
2019-02-15T01:47:17.363Z,100790.81
2019-02-15T01:51:19.767Z,100785.44
2019-02-15T01:55:22.208Z,100791.16
2019-02-15T01:59:25.160Z,100787.56
2019-02-15T02:03:27.489Z,100802.35
2019-02-15T02:07:30.006Z,100792.28
2019-02-15T02:11:32.465Z,100808.41
2019-02-15T02:15:34.897Z,100810.11
2019-02-15T02:19:37.310Z,100802.06
2019-02-15T02:23:40.014Z,100812.18
2019-02-15T02:27:42.335Z,100796.80
2019-02-15T02:31:45.037Z,100806.81
2019-02-15T02:35:48.764Z,100811.61
2019-02-15T02:39:51.161Z,100816.55
2019-02-15T02:43:59.347Z,100806.93
2019-02-15T02:48:00.866Z,100821.93
2019-02-15T02:52:03.296Z,100826.73
2019-02-15T02:56:06.274Z,100823.19
2019-02-15T03:00:10.980Z,100821.02
2019-02-15T03:04:13.632Z,100823.05
2019-02-15T03:08:15.962Z,100806.79
2019-02-15T03:12:18.419Z,100827.04
2019-02-15T03:16:21.829Z,100847.66
2019-02-15T03:20:31.274Z,100869.02
2019-02-15T03:24:28.294Z,100862.52
2019-02-15T03:28:30.854Z,100868.50
2019-02-15T03:32:33.199Z,100861.34
2019-02-15T03:36:54.497Z,100871.37
2019-02-15T03:41:00.574Z,100886.18
2019-02-15T03:45:03.171Z,100876.91
2019-02-15T03:49:05.490Z,100873.28
2019-02-15T03:53:07.927Z,100886.73
2019-02-15T03:57:10.268Z,100884.13
2019-02-15T04:01:13.130Z,100880.38
2019-02-15T04:05:15.465Z,100877.20
2019-02-15T04:09:18.238Z,100872.69
2019-02-15T04:13:20.604Z,100868.81
2019-02-15T04:17:23.222Z,100879.50
2019-02-15T04:21:25.533Z,100885.50
2019-02-15T04:25:27.907Z,100874.61
2019-02-15T04:29:30.683Z,100865.31
2019-02-15T04:33:33.116Z,100872.98
2019-02-15T04:37:35.421Z,100883.80
2019-02-15T04:41:37.890Z,100900.39
2019-02-15T04:45:40.376Z,100906.22
2019-02-15T04:49:43.006Z,100901.34
2019-02-15T04:53:45.326Z,100895.67
2019-02-15T04:57:48.854Z,100905.20
2019-02-15T05:01:51.607Z,100900.31
2019-02-15T05:05:53.992Z,100893.41
2019-02-15T05:09:56.326Z,100904.03
2019-02-15T05:13:58.860Z,100910.14
2019-02-15T05:18:02.864Z,100913.09
2019-02-15T05:22:05.297Z,100909.37
2019-02-15T05:26:07.611Z,100915.05
2019-02-15T05:30:10.313Z,100913.78
2019-02-15T05:34:12.668Z,100916.22
2019-02-15T05:38:16.774Z,100929.67
2019-02-15T05:42:24.143Z,100921.66
2019-02-15T05:46:26.505Z,100939.98
2019-02-15T05:50:29.354Z,100937.89
2019-02-15T05:54:33.195Z,100929.84
2019-02-15T05:58:41.049Z,100930.64
2019-02-15T06:02:43.501Z,100934.10
2019-02-15T06:06:49.254Z,100948.17
2019-02-15T06:11:06.836Z,100951.63
2019-02-15T06:15:21.914Z,100940.79
2019-02-15T06:19:24.442Z,100962.03
2019-02-15T06:23:27.029Z,100955.28
2019-02-15T06:27:29.456Z,100963.21
2019-02-15T06:31:31.801Z,100958.09
2019-02-15T06:35:34.226Z,100971.32
2019-02-15T06:39:36.675Z,100975.75
2019-02-15T06:43:39.092Z,100978.80
2019-02-15T06:47:42.460Z,100974.60
2019-02-15T06:51:44.895Z,100987.75
2019-02-15T06:55:47.360Z,100980.05
2019-02-15T07:00:11.585Z,100994.95
2019-02-15T07:04:24.340Z,100999.14
2019-02-15T07:08:27.437Z,100988.27
2019-02-15T07:12:29.767Z,100978.20
2019-02-15T07:16:32.180Z,100991.16
2019-02-15T07:20:34.510Z,100991.72
2019-02-15T07:24:36.969Z,100991.89
2019-02-15T07:28:39.330Z,100987.83
2019-02-15T07:32:41.738Z,100998.45
2019-02-15T07:36:44.154Z,101000.45
2019-02-15T07:40:46.629Z,101014.95
2019-02-15T07:44:49.053Z,101020.30
2019-02-15T07:48:51.469Z,101017.55
2019-02-15T07:52:54.137Z,101022.20
2019-02-15T07:56:59.445Z,101018.16
2019-02-15T08:01:04.389Z,101016.10
2019-02-15T08:05:07.490Z,101014.66
2019-02-15T08:09:13.177Z,101026.41
2019-02-15T08:13:17.399Z,101028.52
2019-02-15T08:17:19.834Z,101031.92
2019-02-15T08:21:22.394Z,101037.08
2019-02-15T08:25:24.865Z,101044.63
2019-02-15T08:29:27.463Z,101047.14
2019-02-15T08:33:29.936Z,101031.12
2019-02-15T08:37:32.558Z,101027.51
2019-02-15T08:41:34.899Z,101028.89
2019-02-15T08:45:37.361Z,101031.58
2019-02-15T08:49:39.745Z,101027.98
2019-02-15T08:53:42.151Z,101029.34
2019-02-15T08:57:44.534Z,101023.18
2019-02-15T09:02:01.469Z,101022.53
2019-02-15T09:06:03.776Z,101024.16
2019-02-15T09:10:07.954Z,101034.08
2019-02-15T09:14:10.260Z,101030.66
2019-02-15T09:18:12.799Z,101028.80
2019-02-15T09:22:15.383Z,101036.34
2019-02-15T09:26:18.489Z,101031.56
2019-02-15T09:30:21.214Z,101040.56
2019-02-15T09:34:23.589Z,101021.17
2019-02-15T09:38:25.950Z,101029.98
2019-02-15T09:42:28.454Z,101014.90
2019-02-15T09:46:33.254Z,101016.14
2019-02-15T09:50:35.793Z,101014.23
2019-02-15T09:54:41.083Z,101002.17
2019-02-15T09:58:45.142Z,101005.76
2019-02-15T10:02:47.489Z,100999.87
2019-02-15T10:06:49.929Z,101010.95
2019-02-15T10:10:55.624Z,100990.64
2019-02-15T10:14:58.059Z,100983.94
2019-02-15T10:19:00.381Z,100977.75
2019-02-15T10:23:03.239Z,100975.05
2019-02-15T10:27:05.665Z,100973.05
2019-02-15T10:31:08.076Z,100973.16
2019-02-15T10:35:11.058Z,100973.50
2019-02-15T10:39:13.454Z,100970.58
2019-02-15T10:43:15.740Z,100968.00
2019-02-15T10:47:25.013Z,100970.96
2019-02-15T10:51:23.889Z,100966.55
2019-02-15T10:55:26.299Z,100956.65
2019-02-15T10:59:28.664Z,100936.89
2019-02-15T11:03:31.149Z,100939.25
2019-02-15T11:07:33.590Z,100941.22
2019-02-15T11:11:36.170Z,100946.95
2019-02-15T11:15:38.525Z,100951.55
2019-02-15T11:19:42.763Z,100948.48
2019-02-15T11:23:45.077Z,100939.34
2019-02-15T11:27:49.235Z,100929.45
2019-02-15T11:31:51.580Z,100918.95
2019-02-15T11:35:54.020Z,100917.88
2019-02-15T11:39:56.458Z,100912.27
2019-02-15T11:44:00.093Z,100908.33
2019-02-15T11:48:02.439Z,100912.23
2019-02-15T11:52:06.216Z,100903.12
2019-02-15T11:56:08.580Z,100894.31
2019-02-15T12:00:14.974Z,100885.11
2019-02-15T12:04:17.333Z,100876.72
2019-02-15T12:08:19.819Z,100875.39
2019-02-15T12:12:22.161Z,100862.44
2019-02-15T12:16:24.670Z,100873.04
2019-02-15T12:20:26.981Z,100877.56
2019-02-15T12:24:30.431Z,100883.64
2019-02-15T12:28:32.789Z,100877.16
2019-02-15T12:32:35.642Z,100868.04
2019-02-15T12:36:37.985Z,100885.20
2019-02-15T12:40:40.408Z,100874.28
2019-02-15T12:44:42.778Z,100874.22
2019-02-15T12:48:45.174Z,100869.53
2019-02-15T12:52:47.563Z,100853.66
2019-02-15T12:56:49.951Z,100859.20
2019-02-15T13:00:52.282Z,100857.99
2019-02-15T13:04:55.367Z,100856.30
2019-02-15T13:08:57.665Z,100856.69
2019-02-15T13:13:00.046Z,100849.42
2019-02-15T13:17:02.443Z,100840.73
2019-02-15T13:21:05.066Z,100840.89
2019-02-15T13:25:07.581Z,100843.53
2019-02-15T13:29:10.858Z,100847.50
2019-02-15T13:33:13.215Z,100859.05
2019-02-15T13:37:15.793Z,100866.38
2019-02-15T13:41:18.158Z,100870.08
2019-02-15T13:45:20.580Z,100874.88
2019-02-15T13:49:22.970Z,100864.86
2019-02-15T13:53:27.043Z,100858.02
2019-02-15T13:57:29.616Z,100853.59
2019-02-15T14:01:32.045Z,100841.66
2019-02-15T14:05:34.485Z,100845.66
2019-02-15T14:09:36.881Z,100841.78
2019-02-15T14:13:39.221Z,100842.31
2019-02-15T14:17:45.566Z,100849.31
2019-02-15T14:21:45.821Z,100836.52
2019-02-15T14:25:48.226Z,100833.11
2019-02-15T14:29:50.599Z,100837.28
2019-02-15T14:33:53.016Z,100834.57
2019-02-15T14:37:55.368Z,100836.64
2019-02-15T14:41:57.880Z,100844.36
2019-02-15T14:46:00.326Z,100840.96
2019-02-15T14:50:02.871Z,100842.95
2019-02-15T14:54:06.728Z,100830.95
2019-02-15T14:58:11.019Z,100815.62
2019-02-15T15:02:13.466Z,100812.22
2019-02-15T15:06:19.157Z,100810.25
2019-02-15T15:10:21.474Z,100832.84
2019-02-15T15:14:24.062Z,100828.29
2019-02-15T15:18:26.384Z,100841.20
2019-02-15T15:22:29.128Z,100853.39
2019-02-15T15:26:31.846Z,100850.15
2019-02-15T15:30:34.292Z,100857.34
2019-02-15T15:34:36.811Z,100845.48
2019-02-15T15:38:39.251Z,100848.66
2019-02-15T15:42:41.695Z,100853.87
2019-02-15T15:46:44.244Z,100856.52
2019-02-15T15:50:47.700Z,100870.16
2019-02-15T15:54:50.208Z,100875.65
2019-02-15T15:58:52.542Z,100882.08
2019-02-15T16:02:56.245Z,100886.56
2019-02-15T16:06:58.553Z,100874.73
2019-02-15T16:11:00.978Z,100887.01
2019-02-15T16:15:03.405Z,100883.17
2019-02-15T16:19:05.938Z,100880.35
2019-02-15T16:23:08.467Z,100881.82
2019-02-15T16:27:10.945Z,100888.48
2019-02-15T16:31:13.340Z,100889.68
2019-02-15T16:35:15.820Z,100902.55
2019-02-15T16:39:18.287Z,100904.30
2019-02-15T16:43:20.770Z,100909.58
2019-02-15T16:47:23.103Z,100917.97
2019-02-15T16:51:25.523Z,100917.73
2019-02-15T16:55:27.869Z,100922.47
2019-02-15T16:59:30.367Z,100934.42
2019-02-15T17:03:32.738Z,100942.50
2019-02-15T17:07:35.348Z,100953.90
2019-02-15T17:11:37.666Z,100956.41
2019-02-15T17:15:40.239Z,100948.87
2019-02-15T17:19:42.581Z,100952.78
2019-02-15T17:23:45.008Z,100945.59
2019-02-15T17:27:47.302Z,100936.95
2019-02-15T17:31:49.683Z,100936.39
2019-02-15T17:35:51.995Z,100931.53
2019-02-15T17:39:54.376Z,100929.64
2019-02-15T17:43:58.161Z,100928.95
2019-02-15T17:48:00.587Z,100921.97
2019-02-15T17:52:02.929Z,100924.16
2019-02-15T17:56:05.473Z,100930.67
2019-02-15T18:00:08.994Z,100933.55
2019-02-15T18:04:12.953Z,100935.22
2019-02-15T18:08:15.278Z,100943.33
2019-02-15T18:12:17.994Z,100952.67
2019-02-15T18:16:20.577Z,100960.98
2019-02-15T18:20:23.017Z,100973.34
2019-02-15T18:24:25.399Z,100978.52
2019-02-15T18:28:27.933Z,100984.40
2019-02-15T18:32:30.535Z,100986.29
2019-02-15T18:36:32.949Z,100983.63
2019-02-15T18:40:35.309Z,100974.81
2019-02-15T18:44:38.220Z,100967.69
2019-02-15T18:48:40.761Z,100979.04
2019-02-15T18:52:43.207Z,100977.82
2019-02-15T18:56:45.711Z,100973.60
2019-02-15T19:00:48.216Z,100956.91
2019-02-15T19:04:50.557Z,100956.66
2019-02-15T19:08:53.266Z,100951.92
2019-02-15T19:12:55.602Z,100953.25
2019-02-15T19:16:58.226Z,100964.39
2019-02-15T19:21:00.543Z,100975.27
2019-02-15T19:25:03.015Z,100971.65
2019-02-15T19:29:05.375Z,100969.17
2019-02-15T19:33:09.876Z,100970.33
2019-02-15T19:37:12.195Z,100976.91
2019-02-15T19:41:14.626Z,100972.30
2019-02-15T19:45:17.112Z,100971.48
2019-02-15T19:49:19.714Z,100977.19
2019-02-15T19:53:22.064Z,100969.23
2019-02-15T19:57:24.555Z,100973.49
2019-02-15T20:01:27.400Z,100984.61
2019-02-15T20:05:30.204Z,100981.28
2019-02-15T20:09:32.939Z,100983.16
2019-02-15T20:13:35.620Z,100983.53
2019-02-15T20:17:38.123Z,100990.31
2019-02-15T20:21:40.778Z,100997.67
2019-02-15T20:25:43.306Z,100999.90
2019-02-15T20:29:49.485Z,100995.33
2019-02-15T20:33:50.173Z,100996.05
2019-02-15T20:37:52.594Z,100991.67
2019-02-15T20:41:54.950Z,100996.94
2019-02-15T20:45:59.109Z,100990.36
2019-02-15T20:50:01.616Z,100983.53
2019-02-15T20:54:05.901Z,100979.67
2019-02-15T20:58:08.239Z,100975.90
2019-02-15T21:02:11.609Z,100981.27
2019-02-15T21:06:14.715Z,100973.96
2019-02-15T21:10:17.424Z,100977.78
2019-02-15T21:14:19.870Z,100963.36
2019-02-15T21:18:22.347Z,100968.28
2019-02-15T21:22:24.702Z,100968.52
2019-02-15T21:26:27.320Z,100961.17
2019-02-15T21:30:30.087Z,100967.31
2019-02-15T21:34:32.901Z,100961.52
2019-02-15T21:38:35.494Z,100965.68
2019-02-15T21:42:38.263Z,100958.38
2019-02-15T21:46:41.013Z,100963.63
2019-02-15T21:50:43.817Z,100956.61
2019-02-15T21:54:46.558Z,100942.17
2019-02-15T21:58:49.392Z,100946.16
2019-02-15T22:02:52.155Z,100942.09
2019-02-15T22:06:54.915Z,100948.78
2019-02-15T22:10:57.580Z,100939.61
2019-02-15T22:15:00.302Z,100931.85
2019-02-15T22:19:02.922Z,100920.54
2019-02-15T22:23:05.514Z,100913.95
2019-02-15T22:27:08.189Z,100910.12
2019-02-15T22:31:11.947Z,100900.12
2019-02-15T22:35:14.828Z,100899.38
2019-02-15T22:39:17.614Z,100882.52
2019-02-15T22:43:24.662Z,100879.86
2019-02-15T22:47:27.738Z,100879.15
2019-02-15T22:51:30.450Z,100874.81
2019-02-15T22:55:33.409Z,100866.27
2019-02-15T22:59:36.002Z,100856.64
2019-02-15T23:03:38.795Z,100857.05
2019-02-15T23:07:41.169Z,100848.14
2019-02-15T23:11:43.650Z,100855.34
2019-02-15T23:15:46.011Z,100845.26
2019-02-15T23:19:48.816Z,100842.64
2019-02-15T23:23:51.447Z,100836.19
2019-02-15T23:27:54.110Z,100821.01
2019-02-15T23:31:56.682Z,100808.48
2019-02-15T23:35:59.435Z,100808.04
2019-02-15T23:40:02.096Z,100815.30
2019-02-15T23:44:05.005Z,100810.06
2019-02-15T23:48:09.585Z,100809.80
2019-02-15T23:52:12.439Z,100798.34
2019-02-15T23:56:15.016Z,100789.58
